sensor_id;sensor_type;location;lat;lon;timestamp;temperature;humidity
12386;DHT22;6257;57.634;18.310;2023-09-30T00:00:10;15.30;99.90
12386;DHT22;6257;57.634;18.310;2023-09-30T00:02:37;15.30;99.90
12386;DHT22;6257;57.634;18.310;2023-09-30T00:05:05;15.30;99.90
12386;DHT22;6257;57.634;18.310;2023-09-30T00:07:33;15.30;99.90
12386;DHT22;6257;57.634;18.310;2023-09-30T00:10:01;15.40;99.90
12386;DHT22;6257;57.634;18.310;2023-09-30T00:12:28;15.40;99.90
12386;DHT22;6257;57.634;18.310;2023-09-30T00:14:55;15.40;99.90
12386;DHT22;6257;57.634;18.310;2023-09-30T00:17:22;15.40;99.90
12386;DHT22;6257;57.634;18.310;2023-09-30T00:19:50;15.40;99.90
12386;DHT22;6257;57.634;18.310;2023-09-30T00:22:17;15.40;99.90
12386;DHT22;6257;57.634;18.310;2023-09-30T00:24:45;15.40;99.90
12386;DHT22;6257;57.634;18.310;2023-09-30T00:27:12;15.40;99.90
12386;DHT22;6257;57.634;18.310;2023-09-30T00:29:39;15.40;99.90
12386;DHT22;6257;57.634;18.310;2023-09-30T00:32:07;15.40;99.90
12386;DHT22;6257;57.634;18.310;2023-09-30T00:34:34;15.30;99.90
12386;DHT22;6257;57.634;18.310;2023-09-30T00:37:01;15.40;99.90
12386;DHT22;6257;57.634;18.310;2023-09-30T00:39:28;15.40;99.90
12386;DHT22;6257;57.634;18.310;2023-09-30T00:41:58;15.40;99.90
12386;DHT22;6257;57.634;18.310;2023-09-30T00:44:25;15.40;99.90
12386;DHT22;6257;57.634;18.310;2023-09-30T00:46:54;15.30;99.90
12386;DHT22;6257;57.634;18.310;2023-09-30T00:49:22;15.30;99.90
12386;DHT22;6257;57.634;18.310;2023-09-30T00:51:50;15.30;99.90
12386;DHT22;6257;57.634;18.310;2023-09-30T00:54:18;15.30;99.90
12386;DHT22;6257;57.634;18.310;2023-09-30T00:56:47;15.30;99.90
12386;DHT22;6257;57.634;18.310;2023-09-30T00:59:16;15.30;99.90
12386;DHT22;6257;57.634;18.310;2023-09-30T01:01:44;15.30;99.90
12386;DHT22;6257;57.634;18.310;2023-09-30T01:04:11;15.40;99.90
12386;DHT22;6257;57.634;18.310;2023-09-30T01:06:39;15.40;99.90
12386;DHT22;6257;57.634;18.310;2023-09-30T01:09:06;15.40;99.90
12386;DHT22;6257;57.634;18.310;2023-09-30T01:11:34;15.40;99.90
12386;DHT22;6257;57.634;18.310;2023-09-30T01:14:01;15.40;99.90
12386;DHT22;6257;57.634;18.310;2023-09-30T01:16:30;15.40;99.90
12386;DHT22;6257;57.634;18.310;2023-09-30T01:18:57;15.40;99.90
12386;DHT22;6257;57.634;18.310;2023-09-30T01:21:24;15.40;99.90
12386;DHT22;6257;57.634;18.310;2023-09-30T01:23:54;15.40;99.90
12386;DHT22;6257;57.634;18.310;2023-09-30T01:26:21;15.50;99.90
12386;DHT22;6257;57.634;18.310;2023-09-30T01:28:49;15.50;99.90
12386;DHT22;6257;57.634;18.310;2023-09-30T01:31:16;15.50;99.90
12386;DHT22;6257;57.634;18.310;2023-09-30T01:33:43;15.40;99.90
12386;DHT22;6257;57.634;18.310;2023-09-30T01:36:10;15.40;99.90
12386;DHT22;6257;57.634;18.310;2023-09-30T01:38:37;15.40;99.90
12386;DHT22;6257;57.634;18.310;2023-09-30T01:41:06;15.40;99.90
12386;DHT22;6257;57.634;18.310;2023-09-30T01:43:33;15.30;99.90
12386;DHT22;6257;57.634;18.310;2023-09-30T01:46:02;15.30;99.90
12386;DHT22;6257;57.634;18.310;2023-09-30T01:48:29;15.10;99.90
12386;DHT22;6257;57.634;18.310;2023-09-30T01:50:56;15.00;99.90
12386;DHT22;6257;57.634;18.310;2023-09-30T01:53:23;14.90;99.90
12386;DHT22;6257;57.634;18.310;2023-09-30T01:55:50;14.80;99.90
12386;DHT22;6257;57.634;18.310;2023-09-30T02:00:46;14.80;99.90
12386;DHT22;6257;57.634;18.310;2023-09-30T02:03:13;14.70;99.90
12386;DHT22;6257;57.634;18.310;2023-09-30T02:05:40;14.70;99.90
12386;DHT22;6257;57.634;18.310;2023-09-30T02:08:07;14.60;99.90
12386;DHT22;6257;57.634;18.310;2023-09-30T02:10:34;14.50;99.90
12386;DHT22;6257;57.634;18.310;2023-09-30T02:13:01;14.50;99.90
12386;DHT22;6257;57.634;18.310;2023-09-30T02:15:33;14.40;99.90
12386;DHT22;6257;57.634;18.310;2023-09-30T02:18:00;14.30;99.90
12386;DHT22;6257;57.634;18.310;2023-09-30T02:20:27;14.30;99.90
12386;DHT22;6257;57.634;18.310;2023-09-30T02:22:56;14.20;99.90
12386;DHT22;6257;57.634;18.310;2023-09-30T02:25:24;14.20;99.90
12386;DHT22;6257;57.634;18.310;2023-09-30T02:27:51;14.20;99.90
12386;DHT22;6257;57.634;18.310;2023-09-30T02:30:18;14.10;99.90
12386;DHT22;6257;57.634;18.310;2023-09-30T02:32:48;14.10;99.90
12386;DHT22;6257;57.634;18.310;2023-09-30T02:35:15;14.10;99.90
12386;DHT22;6257;57.634;18.310;2023-09-30T02:37:42;14.10;99.90
12386;DHT22;6257;57.634;18.310;2023-09-30T02:40:09;14.10;99.90
12386;DHT22;6257;57.634;18.310;2023-09-30T02:42:36;14.10;99.90
12386;DHT22;6257;57.634;18.310;2023-09-30T02:45:04;14.10;99.90
12386;DHT22;6257;57.634;18.310;2023-09-30T02:47:31;14.00;99.90
12386;DHT22;6257;57.634;18.310;2023-09-30T02:50:01;14.00;99.90
12386;DHT22;6257;57.634;18.310;2023-09-30T02:52:30;13.90;99.90
12386;DHT22;6257;57.634;18.310;2023-09-30T02:54:58;14.00;99.90
12386;DHT22;6257;57.634;18.310;2023-09-30T02:57:25;14.00;99.90
12386;DHT22;6257;57.634;18.310;2023-09-30T02:59:53;14.00;99.90
12386;DHT22;6257;57.634;18.310;2023-09-30T03:02:22;13.90;99.90
12386;DHT22;6257;57.634;18.310;2023-09-30T03:04:49;13.90;99.90
12386;DHT22;6257;57.634;18.310;2023-09-30T03:07:20;13.90;99.90
12386;DHT22;6257;57.634;18.310;2023-09-30T03:09:48;13.80;99.90
12386;DHT22;6257;57.634;18.310;2023-09-30T03:12:15;13.80;99.90
12386;DHT22;6257;57.634;18.310;2023-09-30T03:14:42;13.70;99.90
12386;DHT22;6257;57.634;18.310;2023-09-30T03:17:10;13.70;99.90
12386;DHT22;6257;57.634;18.310;2023-09-30T03:19:38;13.60;99.90
12386;DHT22;6257;57.634;18.310;2023-09-30T03:22:05;13.60;99.90
12386;DHT22;6257;57.634;18.310;2023-09-30T03:24:38;13.60;99.90
12386;DHT22;6257;57.634;18.310;2023-09-30T03:27:05;13.50;99.90
12386;DHT22;6257;57.634;18.310;2023-09-30T03:29:35;13.50;99.90
12386;DHT22;6257;57.634;18.310;2023-09-30T03:32:02;13.50;99.90
12386;DHT22;6257;57.634;18.310;2023-09-30T03:34:29;13.50;99.90
12386;DHT22;6257;57.634;18.310;2023-09-30T03:36:56;13.50;99.90
12386;DHT22;6257;57.634;18.310;2023-09-30T03:39:24;11.00;99.90
12386;DHT22;6257;57.634;18.310;2023-09-30T03:41:54;13.40;99.90
12386;DHT22;6257;57.634;18.310;2023-09-30T03:44:21;13.40;99.90
12386;DHT22;6257;57.634;18.310;2023-09-30T03:46:50;13.40;99.90
12386;DHT22;6257;57.634;18.310;2023-09-30T03:49:17;13.40;99.90
12386;DHT22;6257;57.634;18.310;2023-09-30T03:51:45;13.40;99.90
12386;DHT22;6257;57.634;18.310;2023-09-30T03:54:12;13.30;99.90
12386;DHT22;6257;57.634;18.310;2023-09-30T03:56:39;13.30;99.90
12386;DHT22;6257;57.634;18.310;2023-09-30T03:59:08;13.30;99.90
12386;DHT22;6257;57.634;18.310;2023-09-30T04:04:06;13.40;99.90
12386;DHT22;6257;57.634;18.310;2023-09-30T04:06:35;13.30;99.90
12386;DHT22;6257;57.634;18.310;2023-09-30T04:09:04;13.30;99.90
12386;DHT22;6257;57.634;18.310;2023-09-30T04:11:35;13.30;99.90
12386;DHT22;6257;57.634;18.310;2023-09-30T04:14:03;13.30;99.90
12386;DHT22;6257;57.634;18.310;2023-09-30T04:16:31;13.30;99.90
12386;DHT22;6257;57.634;18.310;2023-09-30T04:18:58;13.30;99.90
12386;DHT22;6257;57.634;18.310;2023-09-30T04:21:26;13.30;99.90
12386;DHT22;6257;57.634;18.310;2023-09-30T04:23:55;13.30;99.90
12386;DHT22;6257;57.634;18.310;2023-09-30T04:26:23;13.20;99.90
12386;DHT22;6257;57.634;18.310;2023-09-30T04:28:50;13.20;99.90
12386;DHT22;6257;57.634;18.310;2023-09-30T04:31:18;13.20;99.90
12386;DHT22;6257;57.634;18.310;2023-09-30T04:33:48;13.20;99.90
12386;DHT22;6257;57.634;18.310;2023-09-30T04:36:16;13.20;99.90
12386;DHT22;6257;57.634;18.310;2023-09-30T04:38:43;13.20;99.90
12386;DHT22;6257;57.634;18.310;2023-09-30T04:41:10;13.20;99.90
12386;DHT22;6257;57.634;18.310;2023-09-30T04:43:38;13.30;99.90
12386;DHT22;6257;57.634;18.310;2023-09-30T04:46:05;13.30;99.90
12386;DHT22;6257;57.634;18.310;2023-09-30T04:48:34;13.20;99.90
12386;DHT22;6257;57.634;18.310;2023-09-30T04:51:06;13.40;99.90
12386;DHT22;6257;57.634;18.310;2023-09-30T04:53:33;13.40;99.90
12386;DHT22;6257;57.634;18.310;2023-09-30T04:56:00;13.40;99.90
12386;DHT22;6257;57.634;18.310;2023-09-30T04:58:28;13.40;99.90
12386;DHT22;6257;57.634;18.310;2023-09-30T05:00:55;13.30;99.90
12386;DHT22;6257;57.634;18.310;2023-09-30T05:03:22;13.30;99.90
12386;DHT22;6257;57.634;18.310;2023-09-30T05:05:51;13.30;99.90
12386;DHT22;6257;57.634;18.310;2023-09-30T05:10:48;13.20;99.90
12386;DHT22;6257;57.634;18.310;2023-09-30T05:13:15;13.10;99.90
12386;DHT22;6257;57.634;18.310;2023-09-30T05:15:43;13.20;99.90
12386;DHT22;6257;57.634;18.310;2023-09-30T05:18:10;13.20;99.90
12386;DHT22;6257;57.634;18.310;2023-09-30T05:20:37;13.20;99.90
12386;DHT22;6257;57.634;18.310;2023-09-30T05:23:04;13.20;99.90
12386;DHT22;6257;57.634;18.310;2023-09-30T05:28:03;13.20;99.90
12386;DHT22;6257;57.634;18.310;2023-09-30T05:30:30;13.20;99.90
12386;DHT22;6257;57.634;18.310;2023-09-30T05:32:57;13.20;99.90
12386;DHT22;6257;57.634;18.310;2023-09-30T05:37:51;13.20;99.90
12386;DHT22;6257;57.634;18.310;2023-09-30T05:40:19;13.30;99.90
12386;DHT22;6257;57.634;18.310;2023-09-30T05:42:51;13.30;99.90
12386;DHT22;6257;57.634;18.310;2023-09-30T05:45:19;13.30;99.90
12386;DHT22;6257;57.634;18.310;2023-09-30T05:47:46;13.30;99.90
12386;DHT22;6257;57.634;18.310;2023-09-30T05:50:13;13.30;99.90
12386;DHT22;6257;57.634;18.310;2023-09-30T05:52:42;13.40;99.90
12386;DHT22;6257;57.634;18.310;2023-09-30T05:55:10;13.40;99.90
12386;DHT22;6257;57.634;18.310;2023-09-30T05:57:37;13.30;99.90
12386;DHT22;6257;57.634;18.310;2023-09-30T06:00:07;13.30;99.90
12386;DHT22;6257;57.634;18.310;2023-09-30T06:02:53;13.30;99.90
12386;DHT22;6257;57.634;18.310;2023-09-30T06:05:21;13.30;99.90
12386;DHT22;6257;57.634;18.310;2023-09-30T06:07:49;13.30;99.90
12386;DHT22;6257;57.634;18.310;2023-09-30T06:10:16;13.30;99.90
12386;DHT22;6257;57.634;18.310;2023-09-30T06:12:45;13.40;99.90
12386;DHT22;6257;57.634;18.310;2023-09-30T06:15:15;13.30;99.90
12386;DHT22;6257;57.634;18.310;2023-09-30T06:17:47;13.40;99.90
12386;DHT22;6257;57.634;18.310;2023-09-30T06:20:14;13.50;99.90
12386;DHT22;6257;57.634;18.310;2023-09-30T06:22:43;13.50;99.90
12386;DHT22;6257;57.634;18.310;2023-09-30T06:25:11;13.50;99.90
12386;DHT22;6257;57.634;18.310;2023-09-30T06:27:39;13.50;99.90
12386;DHT22;6257;57.634;18.310;2023-09-30T06:30:07;13.50;99.90
12386;DHT22;6257;57.634;18.310;2023-09-30T06:32:36;13.60;99.90
12386;DHT22;6257;57.634;18.310;2023-09-30T06:35:04;13.60;99.90
12386;DHT22;6257;57.634;18.310;2023-09-30T06:37:32;13.60;99.90
12386;DHT22;6257;57.634;18.310;2023-09-30T06:39:59;13.60;99.90
12386;DHT22;6257;57.634;18.310;2023-09-30T06:42:29;13.60;99.90
12386;DHT22;6257;57.634;18.310;2023-09-30T06:44:56;13.70;99.90
12386;DHT22;6257;57.634;18.310;2023-09-30T06:47:23;13.70;99.90
12386;DHT22;6257;57.634;18.310;2023-09-30T06:49:51;13.70;99.90
12386;DHT22;6257;57.634;18.310;2023-09-30T06:52:18;13.70;99.90
12386;DHT22;6257;57.634;18.310;2023-09-30T06:54:45;13.80;99.90
12386;DHT22;6257;57.634;18.310;2023-09-30T06:57:12;13.80;99.90
12386;DHT22;6257;57.634;18.310;2023-09-30T06:59:39;13.70;99.90
12386;DHT22;6257;57.634;18.310;2023-09-30T07:02:06;13.80;99.90
12386;DHT22;6257;57.634;18.310;2023-09-30T07:04:33;13.80;99.90
12386;DHT22;6257;57.634;18.310;2023-09-30T07:09:29;13.90;99.90
12386;DHT22;6257;57.634;18.310;2023-09-30T07:11:56;13.90;99.90
12386;DHT22;6257;57.634;18.310;2023-09-30T07:14:23;13.90;99.90
12386;DHT22;6257;57.634;18.310;2023-09-30T07:16:50;13.90;99.90
12386;DHT22;6257;57.634;18.310;2023-09-30T07:19:17;13.90;99.90
12386;DHT22;6257;57.634;18.310;2023-09-30T07:21:44;13.90;99.90
12386;DHT22;6257;57.634;18.310;2023-09-30T07:26:40;14.00;99.90
12386;DHT22;6257;57.634;18.310;2023-09-30T07:29:09;14.00;99.90
12386;DHT22;6257;57.634;18.310;2023-09-30T07:31:36;14.00;99.90
12386;DHT22;6257;57.634;18.310;2023-09-30T07:34:03;14.10;99.90
12386;DHT22;6257;57.634;18.310;2023-09-30T07:36:30;14.20;99.90
12386;DHT22;6257;57.634;18.310;2023-09-30T07:38:57;14.30;99.90
12386;DHT22;6257;57.634;18.310;2023-09-30T07:43:54;14.40;99.90
12386;DHT22;6257;57.634;18.310;2023-09-30T07:46:21;14.40;99.90
12386;DHT22;6257;57.634;18.310;2023-09-30T07:48:48;14.50;99.90
12386;DHT22;6257;57.634;18.310;2023-09-30T07:51:15;14.60;99.90
12386;DHT22;6257;57.634;18.310;2023-09-30T07:53:42;14.70;99.90
12386;DHT22;6257;57.634;18.310;2023-09-30T07:56:09;14.90;99.90
12386;DHT22;6257;57.634;18.310;2023-09-30T07:58:37;15.00;99.90
12386;DHT22;6257;57.634;18.310;2023-09-30T08:01:04;15.10;99.90
12386;DHT22;6257;57.634;18.310;2023-09-30T08:03:31;15.20;99.90
12386;DHT22;6257;57.634;18.310;2023-09-30T08:05:59;15.60;99.90
12386;DHT22;6257;57.634;18.310;2023-09-30T08:08:26;16.10;99.90
12386;DHT22;6257;57.634;18.310;2023-09-30T08:10:55;16.70;99.90
12386;DHT22;6257;57.634;18.310;2023-09-30T08:13:22;17.70;99.90
12386;DHT22;6257;57.634;18.310;2023-09-30T08:18:19;19.00;99.90
12386;DHT22;6257;57.634;18.310;2023-09-30T08:20:46;18.70;99.90
12386;DHT22;6257;57.634;18.310;2023-09-30T08:23:14;18.10;99.90
12386;DHT22;6257;57.634;18.310;2023-09-30T08:25:41;17.00;99.90
12386;DHT22;6257;57.634;18.310;2023-09-30T08:28:09;16.30;99.90
12386;DHT22;6257;57.634;18.310;2023-09-30T08:30:36;15.90;99.90
12386;DHT22;6257;57.634;18.310;2023-09-30T08:33:05;15.60;99.90
12386;DHT22;6257;57.634;18.310;2023-09-30T08:35:35;15.40;99.90
12386;DHT22;6257;57.634;18.310;2023-09-30T08:38:03;15.40;99.90
12386;DHT22;6257;57.634;18.310;2023-09-30T08:40:30;15.40;99.90
12386;DHT22;6257;57.634;18.310;2023-09-30T08:42:57;15.30;99.90
12386;DHT22;6257;57.634;18.310;2023-09-30T08:45:28;15.40;99.90
12386;DHT22;6257;57.634;18.310;2023-09-30T08:47:55;15.40;99.90
12386;DHT22;6257;57.634;18.310;2023-09-30T08:50:25;15.40;99.90
12386;DHT22;6257;57.634;18.310;2023-09-30T08:52:52;15.40;99.90
12386;DHT22;6257;57.634;18.310;2023-09-30T08:55:19;15.40;99.90
12386;DHT22;6257;57.634;18.310;2023-09-30T08:57:46;15.40;99.90
12386;DHT22;6257;57.634;18.310;2023-09-30T09:00:15;15.40;99.90
12386;DHT22;6257;57.634;18.310;2023-09-30T09:02:42;15.40;99.90
12386;DHT22;6257;57.634;18.310;2023-09-30T09:05:09;15.50;99.90
12386;DHT22;6257;57.634;18.310;2023-09-30T09:07:38;15.50;99.90
12386;DHT22;6257;57.634;18.310;2023-09-30T09:10:06;15.50;99.90
12386;DHT22;6257;57.634;18.310;2023-09-30T09:12:35;15.50;99.90
12386;DHT22;6257;57.634;18.310;2023-09-30T09:15:05;15.50;99.90
12386;DHT22;6257;57.634;18.310;2023-09-30T09:17:43;15.50;99.90
12386;DHT22;6257;57.634;18.310;2023-09-30T09:20:11;15.60;99.90
12386;DHT22;6257;57.634;18.310;2023-09-30T09:25:10;15.60;99.90
12386;DHT22;6257;57.634;18.310;2023-09-30T09:27:37;15.60;99.90
12386;DHT22;6257;57.634;18.310;2023-09-30T09:30:15;15.70;99.90
12386;DHT22;6257;57.634;18.310;2023-09-30T09:32:52;15.70;99.90
12386;DHT22;6257;57.634;18.310;2023-09-30T09:35:20;15.70;99.90
12386;DHT22;6257;57.634;18.310;2023-09-30T09:37:59;15.70;99.90
12386;DHT22;6257;57.634;18.310;2023-09-30T09:40:27;15.70;99.90
12386;DHT22;6257;57.634;18.310;2023-09-30T09:42:55;15.70;99.90
12386;DHT22;6257;57.634;18.310;2023-09-30T09:45:22;15.80;99.90
12386;DHT22;6257;57.634;18.310;2023-09-30T09:47:52;15.90;99.90
12386;DHT22;6257;57.634;18.310;2023-09-30T09:50:21;15.90;99.90
12386;DHT22;6257;57.634;18.310;2023-09-30T09:52:49;15.90;99.90
12386;DHT22;6257;57.634;18.310;2023-09-30T09:55:19;15.90;99.90
12386;DHT22;6257;57.634;18.310;2023-09-30T09:57:48;15.90;99.90
12386;DHT22;6257;57.634;18.310;2023-09-30T10:00:18;15.90;99.90
12386;DHT22;6257;57.634;18.310;2023-09-30T10:02:45;16.00;99.90
12386;DHT22;6257;57.634;18.310;2023-09-30T10:05:14;16.00;99.90
12386;DHT22;6257;57.634;18.310;2023-09-30T10:07:44;16.00;99.90
12386;DHT22;6257;57.634;18.310;2023-09-30T10:10:16;16.10;99.90
12386;DHT22;6257;57.634;18.310;2023-09-30T10:12:45;16.30;99.90
12386;DHT22;6257;57.634;18.310;2023-09-30T10:15:39;16.40;99.90
12386;DHT22;6257;57.634;18.310;2023-09-30T10:18:07;16.30;99.90
12386;DHT22;6257;57.634;18.310;2023-09-30T10:20:36;16.30;99.90
12386;DHT22;6257;57.634;18.310;2023-09-30T10:23:19;16.10;99.90
12386;DHT22;6257;57.634;18.310;2023-09-30T10:25:46;16.10;99.90
12386;DHT22;6257;57.634;18.310;2023-09-30T10:28:38;16.20;99.90
12386;DHT22;6257;57.634;18.310;2023-09-30T10:31:12;16.20;99.90
12386;DHT22;6257;57.634;18.310;2023-09-30T10:36:46;16.20;99.90
12386;DHT22;6257;57.634;18.310;2023-09-30T10:39:14;16.20;99.90
12386;DHT22;6257;57.634;18.310;2023-09-30T10:41:50;16.20;99.90
12386;DHT22;6257;57.634;18.310;2023-09-30T10:44:35;16.00;99.90
12386;DHT22;6257;57.634;18.310;2023-09-30T10:47:35;16.00;99.90
12386;DHT22;6257;57.634;18.310;2023-09-30T10:50:03;16.10;99.90
12386;DHT22;6257;57.634;18.310;2023-09-30T10:52:31;16.10;99.90
12386;DHT22;6257;57.634;18.310;2023-09-30T10:55:03;16.00;99.90
12386;DHT22;6257;57.634;18.310;2023-09-30T10:57:32;16.10;99.90
12386;DHT22;6257;57.634;18.310;2023-09-30T11:00:11;16.00;99.90
12386;DHT22;6257;57.634;18.310;2023-09-30T11:02:49;16.00;99.90
12386;DHT22;6257;57.634;18.310;2023-09-30T11:05:17;16.10;99.90
12386;DHT22;6257;57.634;18.310;2023-09-30T11:07:48;16.30;99.90
12386;DHT22;6257;57.634;18.310;2023-09-30T11:10:17;16.40;99.90
12386;DHT22;6257;57.634;18.310;2023-09-30T11:12:55;16.40;99.90
12386;DHT22;6257;57.634;18.310;2023-09-30T11:15:24;16.40;99.90
12386;DHT22;6257;57.634;18.310;2023-09-30T11:17:52;16.40;99.90
12386;DHT22;6257;57.634;18.310;2023-09-30T11:20:19;16.40;99.90
12386;DHT22;6257;57.634;18.310;2023-09-30T11:22:47;16.40;99.90
12386;DHT22;6257;57.634;18.310;2023-09-30T11:25:17;16.40;99.90
12386;DHT22;6257;57.634;18.310;2023-09-30T11:27:45;16.60;99.90
12386;DHT22;6257;57.634;18.310;2023-09-30T11:30:13;16.80;99.90
12386;DHT22;6257;57.634;18.310;2023-09-30T11:32:42;16.90;99.90
12386;DHT22;6257;57.634;18.310;2023-09-30T11:35:10;16.90;99.90
12386;DHT22;6257;57.634;18.310;2023-09-30T11:37:41;16.80;99.90
12386;DHT22;6257;57.634;18.310;2023-09-30T11:40:14;16.80;99.90
12386;DHT22;6257;57.634;18.310;2023-09-30T11:42:41;16.70;99.90
12386;DHT22;6257;57.634;18.310;2023-09-30T11:45:21;16.70;99.90
12386;DHT22;6257;57.634;18.310;2023-09-30T11:47:49;16.70;99.90
12386;DHT22;6257;57.634;18.310;2023-09-30T11:50:16;16.60;99.90
12386;DHT22;6257;57.634;18.310;2023-09-30T11:52:46;16.50;99.90
12386;DHT22;6257;57.634;18.310;2023-09-30T11:55:13;16.50;99.90
12386;DHT22;6257;57.634;18.310;2023-09-30T11:57:42;16.50;99.90
12386;DHT22;6257;57.634;18.310;2023-09-30T12:00:09;16.50;99.90
12386;DHT22;6257;57.634;18.310;2023-09-30T12:02:40;16.40;99.90
12386;DHT22;6257;57.634;18.310;2023-09-30T12:05:09;16.30;99.90
12386;DHT22;6257;57.634;18.310;2023-09-30T12:07:37;16.10;99.90
12386;DHT22;6257;57.634;18.310;2023-09-30T12:10:07;16.10;99.90
12386;DHT22;6257;57.634;18.310;2023-09-30T12:12:35;16.10;99.90
12386;DHT22;6257;57.634;18.310;2023-09-30T12:15:02;16.20;99.90
12386;DHT22;6257;57.634;18.310;2023-09-30T12:17:29;16.30;99.90
12386;DHT22;6257;57.634;18.310;2023-09-30T12:19:56;16.30;99.90
12386;DHT22;6257;57.634;18.310;2023-09-30T12:24:52;16.30;99.90
12386;DHT22;6257;57.634;18.310;2023-09-30T12:27:19;16.30;99.90
12386;DHT22;6257;57.634;18.310;2023-09-30T12:29:46;16.30;99.90
12386;DHT22;6257;57.634;18.310;2023-09-30T12:32:14;16.30;99.90
12386;DHT22;6257;57.634;18.310;2023-09-30T12:34:41;16.30;99.90
12386;DHT22;6257;57.634;18.310;2023-09-30T12:37:08;16.40;99.90
12386;DHT22;6257;57.634;18.310;2023-09-30T12:39:36;16.40;99.90
12386;DHT22;6257;57.634;18.310;2023-09-30T12:42:03;16.40;99.90
12386;DHT22;6257;57.634;18.310;2023-09-30T12:44:34;16.40;99.90
12386;DHT22;6257;57.634;18.310;2023-09-30T12:47:01;16.40;99.90
12386;DHT22;6257;57.634;18.310;2023-09-30T12:49:30;16.40;99.90
12386;DHT22;6257;57.634;18.310;2023-09-30T12:51:57;16.40;99.90
12386;DHT22;6257;57.634;18.310;2023-09-30T12:54:24;16.30;99.90
12386;DHT22;6257;57.634;18.310;2023-09-30T12:56:52;16.30;99.90
12386;DHT22;6257;57.634;18.310;2023-09-30T12:59:19;16.30;99.90
12386;DHT22;6257;57.634;18.310;2023-09-30T13:01:50;16.30;99.90
12386;DHT22;6257;57.634;18.310;2023-09-30T13:04:17;16.30;99.90
12386;DHT22;6257;57.634;18.310;2023-09-30T13:06:44;16.20;99.90
12386;DHT22;6257;57.634;18.310;2023-09-30T13:09:11;16.20;99.90
12386;DHT22;6257;57.634;18.310;2023-09-30T13:11:38;16.20;99.90
12386;DHT22;6257;57.634;18.310;2023-09-30T13:14:08;16.10;99.90
12386;DHT22;6257;57.634;18.310;2023-09-30T13:16:36;16.10;99.90
12386;DHT22;6257;57.634;18.310;2023-09-30T13:19:03;16.10;99.90
12386;DHT22;6257;57.634;18.310;2023-09-30T13:21:31;16.10;99.90
12386;DHT22;6257;57.634;18.310;2023-09-30T13:23:58;16.20;99.90
12386;DHT22;6257;57.634;18.310;2023-09-30T13:26:25;16.20;99.90
12386;DHT22;6257;57.634;18.310;2023-09-30T13:28:52;16.20;99.90
12386;DHT22;6257;57.634;18.310;2023-09-30T13:33:47;16.10;99.90
12386;DHT22;6257;57.634;18.310;2023-09-30T13:36:14;16.10;99.90
12386;DHT22;6257;57.634;18.310;2023-09-30T13:38:41;16.10;99.90
12386;DHT22;6257;57.634;18.310;2023-09-30T13:41:09;16.00;99.90
12386;DHT22;6257;57.634;18.310;2023-09-30T13:43:36;16.00;99.90
12386;DHT22;6257;57.634;18.310;2023-09-30T13:46:04;16.00;99.90
12386;DHT22;6257;57.634;18.310;2023-09-30T13:48:33;16.00;99.90
12386;DHT22;6257;57.634;18.310;2023-09-30T13:51:04;16.00;99.90
12386;DHT22;6257;57.634;18.310;2023-09-30T13:53:32;16.00;99.90
12386;DHT22;6257;57.634;18.310;2023-09-30T13:55:59;16.00;99.90
12386;DHT22;6257;57.634;18.310;2023-09-30T13:58:26;16.00;99.90
12386;DHT22;6257;57.634;18.310;2023-09-30T14:00:53;16.00;99.90
12386;DHT22;6257;57.634;18.310;2023-09-30T14:03:22;16.00;99.90
12386;DHT22;6257;57.634;18.310;2023-09-30T14:05:51;16.00;99.90
12386;DHT22;6257;57.634;18.310;2023-09-30T14:08:18;16.00;99.90
12386;DHT22;6257;57.634;18.310;2023-09-30T14:10:45;16.10;99.90
12386;DHT22;6257;57.634;18.310;2023-09-30T14:13:12;16.00;99.90
12386;DHT22;6257;57.634;18.310;2023-09-30T14:15:40;16.10;99.90
12386;DHT22;6257;57.634;18.310;2023-09-30T14:18:07;16.20;99.90
12386;DHT22;6257;57.634;18.310;2023-09-30T14:20:34;16.10;99.90
12386;DHT22;6257;57.634;18.310;2023-09-30T14:23:03;16.10;99.90
12386;DHT22;6257;57.634;18.310;2023-09-30T14:25:30;16.10;99.90
12386;DHT22;6257;57.634;18.310;2023-09-30T14:27:57;16.10;99.90
12386;DHT22;6257;57.634;18.310;2023-09-30T14:30:26;16.00;99.90
12386;DHT22;6257;57.634;18.310;2023-09-30T14:32:53;16.00;99.90
12386;DHT22;6257;57.634;18.310;2023-09-30T14:35:20;15.90;99.90
12386;DHT22;6257;57.634;18.310;2023-09-30T14:37:47;15.40;99.90
12386;DHT22;6257;57.634;18.310;2023-09-30T14:42:43;15.80;99.90
12386;DHT22;6257;57.634;18.310;2023-09-30T14:45:10;15.70;99.90
12386;DHT22;6257;57.634;18.310;2023-09-30T14:47:38;15.70;99.90
12386;DHT22;6257;57.634;18.310;2023-09-30T14:50:07;15.70;99.90
12386;DHT22;6257;57.634;18.310;2023-09-30T14:52:34;15.70;99.90
12386;DHT22;6257;57.634;18.310;2023-09-30T14:55:01;15.70;99.90
12386;DHT22;6257;57.634;18.310;2023-09-30T14:57:29;15.80;99.90
12386;DHT22;6257;57.634;18.310;2023-09-30T14:59:57;15.80;99.90
12386;DHT22;6257;57.634;18.310;2023-09-30T15:02:24;15.80;99.90
12386;DHT22;6257;57.634;18.310;2023-09-30T15:04:52;15.80;99.90
12386;DHT22;6257;57.634;18.310;2023-09-30T15:07:19;15.80;99.90
12386;DHT22;6257;57.634;18.310;2023-09-30T15:09:46;15.80;99.90
12386;DHT22;6257;57.634;18.310;2023-09-30T15:12:13;15.90;99.90
12386;DHT22;6257;57.634;18.310;2023-09-30T15:14:42;15.90;99.90
12386;DHT22;6257;57.634;18.310;2023-09-30T15:17:10;15.90;99.90
12386;DHT22;6257;57.634;18.310;2023-09-30T15:19:37;15.70;99.90
12386;DHT22;6257;57.634;18.310;2023-09-30T15:22:04;15.70;99.90
12386;DHT22;6257;57.634;18.310;2023-09-30T15:24:31;15.60;99.90
12386;DHT22;6257;57.634;18.310;2023-09-30T15:26:58;15.60;99.90
12386;DHT22;6257;57.634;18.310;2023-09-30T15:29:25;15.50;99.90
12386;DHT22;6257;57.634;18.310;2023-09-30T15:31:54;15.40;99.90
12386;DHT22;6257;57.634;18.310;2023-09-30T15:34:21;15.40;99.90
12386;DHT22;6257;57.634;18.310;2023-09-30T15:36:48;15.30;99.90
12386;DHT22;6257;57.634;18.310;2023-09-30T15:39:15;15.30;99.90
12386;DHT22;6257;57.634;18.310;2023-09-30T15:41:42;15.30;99.90
12386;DHT22;6257;57.634;18.310;2023-09-30T15:44:09;15.30;99.90
12386;DHT22;6257;57.634;18.310;2023-09-30T15:46:36;15.20;99.90
12386;DHT22;6257;57.634;18.310;2023-09-30T15:49:04;15.20;99.90
12386;DHT22;6257;57.634;18.310;2023-09-30T15:51:31;15.20;99.90
12386;DHT22;6257;57.634;18.310;2023-09-30T15:53:58;15.10;99.90
12386;DHT22;6257;57.634;18.310;2023-09-30T15:56:25;15.20;99.90
12386;DHT22;6257;57.634;18.310;2023-09-30T15:58:52;15.20;99.90
12386;DHT22;6257;57.634;18.310;2023-09-30T16:01:19;15.20;99.90
12386;DHT22;6257;57.634;18.310;2023-09-30T16:03:46;15.10;99.90
12386;DHT22;6257;57.634;18.310;2023-09-30T16:06:16;15.20;99.90
12386;DHT22;6257;57.634;18.310;2023-09-30T16:08:43;15.10;99.90
12386;DHT22;6257;57.634;18.310;2023-09-30T16:11:13;15.10;99.90